Time;durP1;ratioP1;P1;durP2;ratioP2;P2;SDS_P1;SDS_P2;PMS_P1;PMS_P2;Temp;Humidity;BMP_temperature;BMP_pressure;BME280_temperature;BME280_humidity;BME280_pressure;Samples;Min_cycle;Max_cycle;Signal;HPM_P1;HPM_P2
2023/09/06 00:00:43;;;;;;;4.93;4.07;;;;;;;15.97;100.00;100511.22;5011969;28;20757;-72
2023/09/06 00:03:10;;;;;;;5.10;3.87;;;;;;;15.91;100.00;100503.88;5041942;28;20613;-72
2023/09/06 00:05:36;;;;;;;5.97;4.50;;;;;;;15.90;100.00;100507.44;5032210;28;20232;-71
2023/09/06 00:08:02;;;;;;;8.73;4.10;;;;;;;15.91;100.00;100506.47;5032238;28;20176;-72
2023/09/06 00:10:28;;;;;;;6.80;4.17;;;;;;;15.92;100.00;100510.72;5021602;28;20304;-72
2023/09/06 00:12:53;;;;;;;6.40;3.50;;;;;;;15.97;100.00;100507.81;5022819;28;20183;-73
2023/09/06 00:15:18;;;;;;;4.93;3.90;;;;;;;15.87;100.00;100512.81;5012479;28;20549;-73
2023/09/06 00:17:44;;;;;;;4.70;4.17;;;;;;;15.80;100.00;100512.41;5012306;28;20206;-73
2023/09/06 00:20:22;;;;;;;4.73;3.60;;;;;;;15.77;100.00;100509.19;5004041;28;20547;-72
2023/09/06 00:22:59;;;;;;;7.87;4.37;;;;;;;15.68;100.00;100512.41;5044469;28;20232;-72
2023/09/06 00:25:26;;;;;;;4.00;3.60;;;;;;;15.68;100.00;100508.06;5031731;28;20197;-73
2023/09/06 00:27:51;;;;;;;4.63;3.53;;;;;;;15.72;100.00;100508.69;5031926;28;20239;-73
2023/09/06 00:30:20;;;;;;;5.90;3.80;;;;;;;15.67;100.00;100511.59;5023466;28;20208;-72
2023/09/06 00:32:46;;;;;;;5.77;3.90;;;;;;;15.63;100.00;100507.56;5044530;28;20643;-73
2023/09/06 00:35:12;;;;;;;6.80;3.90;;;;;;;15.55;100.00;100508.06;5031826;28;20221;-72
2023/09/06 00:37:42;;;;;;;4.33;3.80;;;;;;;15.51;100.00;100509.22;5046918;28;20198;-71
2023/09/06 00:40:17;;;;;;;4.97;3.63;;;;;;;15.53;100.00;100511.72;5022009;28;20182;-72
2023/09/06 00:42:51;;;;;;;4.17;3.73;;;;;;;15.46;100.00;100512.13;5044855;28;20177;-72
2023/09/06 00:45:21;;;;;;;4.73;4.03;;;;;;;15.52;100.00;100513.50;5030850;28;20182;-71
2023/09/06 00:47:46;;;;;;;5.67;4.20;;;;;;;15.51;100.00;100504.06;5031440;28;20201;-72
2023/09/06 00:50:14;;;;;;;4.17;3.73;;;;;;;15.46;100.00;100501.75;5022880;28;20626;-71
2023/09/06 00:52:41;;;;;;;7.83;4.10;;;;;;;15.42;100.00;100502.09;5043616;28;20186;-73
2023/09/06 00:55:08;;;;;;;5.27;4.20;;;;;;;15.38;100.00;100495.44;5031836;28;20174;-71
2023/09/06 00:57:33;;;;;;;4.30;3.90;;;;;;;15.28;100.00;100500.44;5031582;28;20240;-73
2023/09/06 00:59:59;;;;;;;3.87;3.33;;;;;;;15.23;100.00;100500.75;5030260;28;20654;-73
2023/09/06 01:02:25;;;;;;;4.70;4.03;;;;;;;15.23;100.00;100499.91;5016528;28;21008;-73
2023/09/06 01:04:51;;;;;;;4.23;3.80;;;;;;;15.21;100.00;100494.84;5011901;28;20171;-72
2023/09/06 01:07:17;;;;;;;4.47;3.70;;;;;;;15.21;100.00;100500.03;5010173;28;20191;-71
2023/09/06 01:09:43;;;;;;;4.33;3.80;;;;;;;15.12;100.00;100493.72;5010494;28;20613;-73
2023/09/06 01:12:09;;;;;;;6.63;4.40;;;;;;;15.10;100.00;100495.56;5004863;28;20236;-72
2023/09/06 01:14:37;;;;;;;4.33;3.80;;;;;;;15.13;100.00;100495.38;5020538;28;20240;-72
2023/09/06 01:17:03;;;;;;;7.07;4.00;;;;;;;15.15;100.00;100490.91;5031374;28;20315;-72
2023/09/06 01:19:32;;;;;;;5.57;3.77;;;;;;;15.11;100.00;100492.03;5031570;28;20680;-71
2023/09/06 01:22:16;;;;;;;4.70;3.80;;;;;;;14.96;100.00;100486.13;5019435;28;20313;-73
2023/09/06 01:24:42;;;;;;;5.43;4.20;;;;;;;15.01;100.00;100481.47;5013323;28;20182;-74
2023/09/06 01:27:09;;;;;;;4.60;4.03;;;;;;;14.99;100.00;100493.69;5015116;28;20214;-72
2023/09/06 01:29:35;;;;;;;4.03;3.50;;;;;;;15.01;100.00;100486.66;5011810;28;20727;-73
2023/09/06 01:32:00;;;;;;;6.43;3.93;;;;;;;15.01;100.00;100484.06;5030121;28;20272;-72
2023/09/06 01:34:25;;;;;;;4.97;4.20;;;;;;;14.92;100.00;100486.44;5028189;28;20181;-72
2023/09/06 01:36:51;;;;;;;6.00;3.70;;;;;;;14.93;100.00;100485.50;5034955;28;20525;-73
2023/09/06 01:39:17;;;;;;;8.03;4.10;;;;;;;14.98;100.00;100486.03;5030190;28;20193;-73
2023/09/06 01:41:42;;;;;;;10.03;4.67;;;;;;;14.98;100.00;100481.69;5022579;28;20232;-72
2023/09/06 01:44:07;;;;;;;8.47;4.13;;;;;;;15.00;100.00;100482.41;5017754;28;20249;-72
2023/09/06 01:46:32;;;;;;;6.63;4.33;;;;;;;14.96;100.00;100477.53;5014941;28;20198;-72
2023/09/06 01:48:59;;;;;;;4.17;3.53;;;;;;;14.90;100.00;100478.78;5014875;28;20187;-73
2023/09/06 01:51:25;;;;;;;7.77;3.80;;;;;;;14.89;100.00;100477.09;5012067;28;20229;-70
2023/09/06 01:53:51;;;;;;;10.63;3.90;;;;;;;14.89;100.00;100476.28;5031574;28;20193;-72
2023/09/06 01:56:16;;;;;;;5.13;3.83;;;;;;;14.84;100.00;100477.41;5034193;28;20179;-72
2023/09/06 01:58:41;;;;;;;5.40;4.07;;;;;;;14.77;100.00;100475.34;5034420;28;20205;-72
2023/09/06 02:01:07;;;;;;;5.77;3.73;;;;;;;14.79;100.00;100484.66;5016539;28;20284;-72
2023/09/06 02:03:33;;;;;;;6.80;4.50;;;;;;;14.71;100.00;100476.59;5021384;28;20186;-72
2023/09/06 02:06:01;;;;;;;6.13;4.30;;;;;;;14.67;100.00;100482.88;5014549;28;20186;-75
2023/09/06 02:08:26;;;;;;;7.97;4.80;;;;;;;14.60;100.00;100484.16;5014642;28;20630;-73
2023/09/06 02:10:52;;;;;;;6.30;4.30;;;;;;;14.57;100.00;100479.22;5017420;28;20283;-73
2023/09/06 02:13:17;;;;;;;4.93;4.27;;;;;;;14.56;100.00;100480.13;5029310;28;20182;-73
2023/09/06 02:15:42;;;;;;;7.93;4.10;;;;;;;14.53;100.00;100476.00;5033818;28;20186;-72
2023/09/06 02:18:07;;;;;;;8.50;3.97;;;;;;;14.52;100.00;100480.34;5034086;28;20565;-73
2023/09/06 02:20:33;;;;;;;5.97;3.70;;;;;;;14.46;100.00;100480.75;5023405;28;20317;-72
2023/09/06 02:22:58;;;;;;;6.70;3.90;;;;;;;14.49;100.00;100482.31;5025110;28;20693;-72
2023/09/06 02:26:04;;;;;;;5.13;4.07;;;;;;;14.36;100.00;100482.25;5014282;28;20186;-72
2023/09/06 02:28:29;;;;;;;7.60;4.23;;;;;;;14.40;100.00;100483.72;5011884;28;20182;-69
2023/09/06 02:30:55;;;;;;;5.23;4.07;;;;;;;14.43;100.00;100487.88;5022303;28;20225;-71
2023/09/06 02:33:20;;;;;;;7.97;4.00;;;;;;;14.48;100.00;100491.00;5022198;28;20186;-72
2023/09/06 02:35:45;;;;;;;4.43;4.00;;;;;;;14.58;100.00;100491.22;5013333;28;20623;-71
2023/09/06 02:38:13;;;;;;;8.57;4.37;;;;;;;14.65;100.00;100492.53;5005495;28;20207;-71
2023/09/06 02:40:40;;;;;;;6.60;4.27;;;;;;;14.64;100.00;100483.88;4995870;28;20229;-73
2023/09/06 02:43:06;;;;;;;5.73;4.37;;;;;;;14.59;100.00;100491.13;5010512;28;20191;-72
2023/09/06 02:45:37;;;;;;;6.00;4.37;;;;;;;14.58;100.00;100491.22;5014081;28;20194;-72
2023/09/06 02:48:07;;;;;;;6.97;4.50;;;;;;;14.60;100.00;100485.03;5013582;28;20190;-72
2023/09/06 02:50:34;;;;;;;5.23;4.73;;;;;;;14.59;100.00;100485.13;5007830;28;20225;-71
2023/09/06 02:53:03;;;;;;;4.73;4.20;;;;;;;14.51;100.00;100490.78;5024321;28;20226;-73
2023/09/06 02:55:29;;;;;;;5.57;4.47;;;;;;;14.50;100.00;100484.78;5013702;28;20178;-71
2023/09/06 02:57:55;;;;;;;5.60;4.50;;;;;;;14.52;100.00;100490.69;5012113;28;20202;-72
2023/09/06 03:00:26;;;;;;;6.37;4.67;;;;;;;14.49;100.00;100484.91;5006101;28;20262;-72
2023/09/06 03:02:58;;;;;;;5.60;4.50;;;;;;;14.41;100.00;100494.91;5012487;28;20282;-72
2023/09/06 03:05:26;;;;;;;9.00;5.07;;;;;;;14.47;100.00;100497.09;5013711;28;20179;-73
2023/09/06 03:07:53;;;;;;;6.27;4.73;;;;;;;14.38;100.00;100495.94;5013243;28;20181;-71
2023/09/06 03:10:20;;;;;;;4.87;4.37;;;;;;;14.40;100.00;100501.00;5005576;28;20228;-72
2023/09/06 03:12:47;;;;;;;5.07;4.53;;;;;;;14.31;100.00;100503.28;5006725;28;20262;-71
2023/09/06 03:15:13;;;;;;;6.60;4.63;;;;;;;14.29;100.00;100497.34;5007455;28;20198;-71
2023/09/06 03:17:39;;;;;;;4.27;3.87;;;;;;;14.24;100.00;100499.41;5013237;28;20190;-71
2023/09/06 03:20:18;;;;;;;6.93;3.70;;;;;;;14.19;100.00;100502.28;4989680;28;20234;-74
2023/09/06 03:22:46;;;;;;;7.97;5.23;;;;;;;14.15;100.00;100502.56;5017003;28;20686;-73
2023/09/06 03:25:14;;;;;;;6.13;4.37;;;;;;;14.15;100.00;100502.56;5009381;28;20257;-73
2023/09/06 03:27:39;;;;;;;4.83;4.10;;;;;;;14.16;100.00;100499.06;5013082;28;20229;-73
2023/09/06 03:30:07;;;;;;;7.30;4.80;;;;;;;14.09;100.00;100495.19;4996526;28;20191;-72
2023/09/06 03:32:33;;;;;;;10.30;4.63;;;;;;;14.08;100.00;100496.97;5027866;28;20225;-74
2023/09/06 03:34:58;;;;;;;4.80;4.40;;;;;;;14.05;100.00;100491.97;5029092;28;20205;-73
2023/09/06 03:37:23;;;;;;;6.97;4.97;;;;;;;14.06;100.00;100496.22;5030680;28;20245;-73
2023/09/06 03:39:53;;;;;;;5.17;4.67;;;;;;;14.04;100.00;100491.16;5028849;28;20600;-72
2023/09/06 03:42:18;;;;;;;7.30;5.20;;;;;;;13.97;100.00;100501.97;5003513;28;20272;-73
2023/09/06 03:44:46;;;;;;;6.27;4.53;;;;;;;13.95;100.00;100502.06;5011522;28;20182;-72
2023/09/06 03:47:15;;;;;;;5.63;4.93;;;;;;;14.02;100.00;100498.16;5012140;28;20183;-72
2023/09/06 03:49:43;;;;;;;10.33;5.30;;;;;;;13.95;100.00;100503.81;5012247;28;20580;-73
2023/09/06 03:52:10;;;;;;;6.43;4.73;;;;;;;13.97;100.00;100505.38;5024440;28;20229;-74
2023/09/06 03:54:36;;;;;;;4.23;3.90;;;;;;;14.00;100.00;100504.34;5030165;28;20174;-72
2023/09/06 03:57:07;;;;;;;5.40;4.83;;;;;;;14.09;100.00;100503.78;5014730;28;20198;-72
2023/09/06 03:59:35;;;;;;;6.33;4.73;;;;;;;14.06;100.00;100503.97;5032159;28;20171;-71
2023/09/06 04:02:02;;;;;;;6.90;5.13;;;;;;;14.07;100.00;100513.41;5020352;28;20670;-72
2023/09/06 04:04:29;;;;;;;6.10;4.73;;;;;;;14.01;100.00;100512.00;5012304;28;20225;-71
2023/09/06 04:06:54;;;;;;;8.80;4.13;;;;;;;13.93;100.00;100518.59;5012721;28;20217;-71
2023/09/06 04:09:27;;;;;;;5.53;4.30;;;;;;;13.83;100.00;100511.41;5011016;28;20607;-72
2023/09/06 04:11:53;;;;;;;4.73;4.30;;;;;;;13.79;100.00;100512.53;5015598;28;20702;-72
2023/09/06 04:14:18;;;;;;;4.47;4.07;;;;;;;13.75;100.00;100516.22;5010737;28;20186;-73
2023/09/06 04:16:43;;;;;;;4.63;4.23;;;;;;;13.73;100.00;100523.25;5012206;28;20225;-72
2023/09/06 04:19:08;;;;;;;4.70;4.20;;;;;;;13.61;100.00;100527.41;5012405;28;20556;-71
2023/09/06 04:21:34;;;;;;;5.60;4.43;;;;;;;13.73;100.00;100520.66;5013543;28;20284;-72
2023/09/06 04:23:59;;;;;;;5.73;4.77;;;;;;;13.69;100.00;100525.19;5021491;28;20186;-72
2023/09/06 04:26:25;;;;;;;5.57;5.07;;;;;;;13.76;100.00;100527.41;5032126;28;20327;-71
2023/09/06 04:28:51;;;;;;;5.20;4.70;;;;;;;13.81;100.00;100530.53;5031837;28;20544;-72
2023/09/06 04:31:17;;;;;;;6.07;4.50;;;;;;;13.79;100.00;100533.22;5031302;28;20233;-72
2023/09/06 04:33:43;;;;;;;8.10;5.00;;;;;;;13.62;100.00;100531.66;5036585;28;20174;-73
2023/09/06 04:36:08;;;;;;;4.93;4.43;;;;;;;13.68;100.00;100530.44;5032123;28;20189;-73
2023/09/06 04:38:33;;;;;;;5.97;5.13;;;;;;;13.72;100.00;100529.34;5031518;28;20214;-72
2023/09/06 04:40:58;;;;;;;7.80;4.43;;;;;;;13.71;100.00;100525.91;5028995;28;20225;-71
2023/09/06 04:43:25;;;;;;;12.63;4.87;;;;;;;13.65;100.00;100535.81;5038525;28;20182;-71
2023/09/06 04:45:50;;;;;;;5.47;4.97;;;;;;;13.62;100.00;100531.66;5031315;28;20186;-71
2023/09/06 04:48:19;;;;;;;6.43;5.17;;;;;;;13.61;100.00;100529.16;5030342;28;20541;-72
2023/09/06 04:50:46;;;;;;;6.70;5.20;;;;;;;13.61;100.00;100529.16;5027167;28;20295;-74
2023/09/06 04:53:12;;;;;;;7.97;5.33;;;;;;;13.61;100.00;100531.75;5029988;28;20188;-72
2023/09/06 04:55:39;;;;;;;5.77;5.13;;;;;;;13.64;100.00;100532.38;5031633;28;20260;-72
2023/09/06 04:58:06;;;;;;;5.17;4.70;;;;;;;13.61;100.00;100532.56;5031730;28;20186;-72
2023/09/06 05:00:35;;;;;;;8.03;5.37;;;;;;;13.68;100.00;100531.28;5024979;28;20276;-71
2023/09/06 05:03:00;;;;;;;7.60;5.20;;;;;;;13.69;100.00;100526.94;5026092;28;20230;-71
2023/09/06 05:05:26;;;;;;;8.70;5.10;;;;;;;13.70;100.00;100533.78;5014483;28;20211;-72
2023/09/06 05:07:51;;;;;;;8.07;4.83;;;;;;;13.75;100.00;100536.09;5015246;28;20651;-71
2023/09/06 05:10:17;;;;;;;8.00;5.17;;;;;;;13.78;100.00;100530.72;5007795;28;20175;-71
2023/09/06 05:12:43;;;;;;;5.60;4.83;;;;;;;13.78;100.00;100536.72;5033118;28;20166;-71
2023/09/06 05:15:08;;;;;;;10.17;4.93;;;;;;;13.75;100.00;100536.91;5035095;28;20208;-72
2023/09/06 05:17:35;;;;;;;9.93;5.43;;;;;;;13.75;100.00;100539.47;5034897;28;20233;-72
2023/09/06 05:20:31;;;;;;;6.97;5.60;;;;;;;13.70;100.00;100546.69;5034951;28;20598;-71
2023/09/06 05:22:59;;;;;;;6.90;4.93;;;;;;;13.72;100.00;100540.50;5014455;28;20245;-71
2023/09/06 05:25:25;;;;;;;7.27;5.40;;;;;;;13.76;100.00;100541.16;5033475;28;20212;-72
2023/09/06 05:27:53;;;;;;;5.77;4.90;;;;;;;13.82;100.00;100538.19;5034705;28;20186;-71
2023/09/06 05:30:18;;;;;;;10.20;5.43;;;;;;;13.84;100.00;100538.94;5024640;28;20182;-71
2023/09/06 05:32:44;;;;;;;12.37;5.90;;;;;;;13.92;100.00;100542.78;5027864;28;20595;-72
2023/09/06 05:35:09;;;;;;;5.93;4.80;;;;;;;13.91;100.00;100547.13;5013751;28;20188;-72
2023/09/06 05:37:36;;;;;;;16.90;5.70;;;;;;;13.98;100.00;100545.00;5014917;28;20216;-72
2023/09/06 05:40:04;;;;;;;9.77;4.90;;;;;;;14.03;100.00;100546.38;5014405;28;20661;-72
2023/09/06 05:42:30;;;;;;;9.60;5.67;;;;;;;14.16;100.00;100550.78;5003129;28;20222;-72
2023/09/06 05:44:56;;;;;;;8.73;5.53;;;;;;;14.22;100.00;100554.78;5013947;28;20549;-71
2023/09/06 05:47:21;;;;;;;16.30;13.23;;;;;;;14.33;100.00;100550.56;5015108;28;20225;-72
2023/09/06 05:49:48;;;;;;;11.57;9.60;;;;;;;14.41;100.00;100555.25;5014647;28;20629;-72
2023/09/06 05:52:13;;;;;;;6.80;5.70;;;;;;;14.50;100.00;100553.84;5037565;28;20221;-72
2023/09/06 05:54:38;;;;;;;12.20;6.37;;;;;;;14.59;100.00;100555.03;5034181;28;20185;-72
2023/09/06 05:57:05;;;;;;;7.70;6.07;;;;;;;14.60;100.00;100554.91;5034690;28;20284;-72
2023/09/06 05:59:30;;;;;;;7.97;5.67;;;;;;;14.73;100.00;100562.75;5034303;28;20602;-72
2023/09/06 06:01:55;;;;;;;6.83;5.07;;;;;;;14.78;100.00;100552.91;5022452;28;20241;-72
2023/09/06 06:04:21;;;;;;;8.33;6.10;;;;;;;14.93;100.00;100558.84;5015455;28;20197;-72
2023/09/06 06:06:47;;;;;;;6.93;5.83;;;;;;;15.03;100.00;100560.84;5014544;28;20193;-72
2023/09/06 06:09:15;;;;;;;7.57;5.30;;;;;;;15.17;100.00;100560.78;5014187;28;20171;-72
2023/09/06 06:11:41;;;;;;;10.23;6.00;;;;;;;15.27;100.00;100573.91;5018721;28;20236;-71
2023/09/06 06:14:06;;;;;;;8.70;5.23;;;;;;;15.37;100.00;100567.22;5022668;28;20638;-72
2023/09/06 06:16:32;;;;;;;7.70;4.90;;;;;;;15.70;100.00;100565.84;5034289;28;20189;-71
2023/09/06 06:18:57;;;;;;;5.83;4.90;;;;;;;15.88;100.00;100570.75;5032444;28;20204;-72
2023/09/06 06:21:24;;;;;;;6.90;4.27;;;;;;;16.11;100.00;100572.56;5022810;28;20237;-69
2023/09/06 06:23:49;;;;;;;4.70;4.30;;;;;;;16.23;100.00;100568.25;5006433;28;20217;-72
2023/09/06 06:26:19;;;;;;;8.93;4.33;;;;;;;16.37;100.00;100566.44;5014264;28;20289;-72
2023/09/06 06:28:44;;;;;;;5.77;3.90;;;;;;;16.69;100.00;100564.09;5012889;28;20167;-72
2023/09/06 06:31:09;;;;;;;4.80;3.73;;;;;;;16.96;100.00;100568.25;5012881;28;21026;-73
2023/09/06 06:33:35;;;;;;;5.40;4.20;;;;;;;17.18;100.00;100567.50;5020120;28;20630;-72
2023/09/06 06:36:00;;;;;;;5.63;3.30;;;;;;;17.34;100.00;100569.75;5013828;28;20179;-70
2023/09/06 06:38:25;;;;;;;4.73;4.10;;;;;;;17.71;100.00;100566.09;5013646;28;20190;-71
2023/09/06 06:40:50;;;;;;;7.03;3.70;;;;;;;18.35;100.00;100560.22;5012556;28;20750;-70
2023/09/06 06:43:16;;;;;;;4.07;3.63;;;;;;;19.21;100.00;100562.00;5029596;28;20192;-72
2023/09/06 06:45:52;;;;;;;8.53;3.77;;;;;;;19.97;100.00;100559.06;5033598;28;20182;-73
2023/09/06 06:48:18;;;;;;;6.73;3.33;;;;;;;21.06;100.00;100563.38;5032322;28;20224;-72
2023/09/06 06:50:43;;;;;;;4.77;3.37;;;;;;;22.31;100.00;100566.53;5023014;28;20641;-72
2023/09/06 06:53:08;;;;;;;5.93;2.83;;;;;;;22.92;100.00;100563.31;5023303;28;20581;-74
2023/09/06 06:55:33;;;;;;;5.03;2.50;;;;;;;24.53;95.67;100567.91;5013820;28;20178;-72
2023/09/06 06:57:59;;;;;;;3.25;2.95;;;;;;;25.12;92.09;100563.28;5013240;28;20199;-73
2023/09/06 07:00:24;;;;;;;9.23;3.35;;;;;;;25.37;88.11;100579.03;5009537;28;20684;-73
2023/09/06 07:02:49;;;;;;;4.75;2.92;;;;;;;26.06;82.61;100574.97;5044899;28;20692;-71
2023/09/06 07:05:15;;;;;;;3.30;2.97;;;;;;;25.11;83.90;100579.25;5033384;28;20308;-72
2023/09/06 07:07:40;;;;;;;5.75;2.83;;;;;;;25.22;84.47;100584.16;5015099;28;20217;-72
2023/09/06 07:10:07;;;;;;;3.72;3.03;;;;;;;24.95;87.04;100583.53;5023110;28;20190;-71
2023/09/06 07:12:32;;;;;;;8.10;3.70;;;;;;;24.41;88.02;100593.69;4979493;28;20549;-71
2023/09/06 07:14:58;;;;;;;3.30;2.92;;;;;;;26.54;76.19;100599.34;5013491;28;20179;-72
2023/09/06 07:17:23;;;;;;;6.00;3.33;;;;;;;26.68;69.93;100592.50;5013111;28;20201;-71
2023/09/06 07:19:49;;;;;;;4.97;3.40;;;;;;;27.15;64.38;100598.56;5013124;28;20205;-71
2023/09/06 07:22:15;;;;;;;5.47;3.50;;;;;;;25.98;75.76;100604.81;5011039;28;20796;-72
2023/09/06 07:24:40;;;;;;;6.07;3.47;;;;;;;26.60;71.49;100607.59;5007823;28;20670;-72
2023/09/06 07:27:06;;;;;;;10.25;3.15;;;;;;;26.04;76.87;100605.94;5013421;28;20195;-71
2023/09/06 07:29:31;;;;;;;3.70;3.10;;;;;;;27.20;66.96;100605.91;5013089;28;20191;-72
2023/09/06 07:31:58;;;;;;;4.70;3.10;;;;;;;26.76;67.78;100607.47;4981070;28;20695;-70
2023/09/06 07:34:23;;;;;;;4.47;3.50;;;;;;;25.17;76.59;100606.69;5013034;28;20670;-71
2023/09/06 07:36:48;;;;;;;4.68;3.00;;;;;;;26.08;73.03;100608.06;5011302;28;20209;-70
2023/09/06 07:39:14;;;;;;;5.72;3.42;;;;;;;25.50;76.59;100604.81;5012970;28;20554;-70
2023/09/06 07:41:39;;;;;;;8.10;3.72;;;;;;;25.01;80.39;100610.19;5015000;28;20239;-70
2023/09/06 07:44:04;;;;;;;3.92;3.10;;;;;;;24.95;82.87;100606.41;5031336;28;20170;-70
2023/09/06 07:46:30;;;;;;;4.20;3.15;;;;;;;24.95;78.87;100607.22;5032315;28;20744;-70
2023/09/06 07:48:56;;;;;;;7.93;3.60;;;;;;;25.50;78.63;100609.28;5032544;28;20209;-69
2023/09/06 07:51:21;;;;;;;5.05;3.40;;;;;;;25.30;77.72;100614.91;5020828;28;20694;-71
2023/09/06 07:53:47;;;;;;;3.65;3.17;;;;;;;25.48;76.10;100625.28;5017627;28;20202;-70
2023/09/06 07:56:13;;;;;;;3.63;3.10;;;;;;;25.29;78.83;100619.34;5012488;28;20189;-71
2023/09/06 07:58:38;;;;;;;4.47;3.22;;;;;;;25.80;76.37;100626.16;5012749;28;20619;-71
2023/09/06 08:01:04;;;;;;;5.03;3.30;;;;;;;27.14;65.93;100625.94;5010069;28;20236;-71
2023/09/06 08:03:29;;;;;;;5.95;2.97;;;;;;;28.40;59.16;100627.75;5010889;28;20526;-71
2023/09/06 08:05:55;;;;;;;4.43;3.00;;;;;;;27.32;66.38;100628.22;5012014;28;20229;-72
2023/09/06 08:08:20;;;;;;;7.70;3.38;;;;;;;28.25;56.59;100643.69;5012692;28;20190;-72
2023/09/06 08:10:46;;;;;;;6.30;3.03;;;;;;;27.17;61.36;100640.63;5010644;28;20225;-72
2023/09/06 08:13:11;;;;;;;9.57;3.38;;;;;;;26.65;63.95;100644.81;5032303;28;20190;-71
2023/09/06 08:15:37;;;;;;;6.38;3.67;;;;;;;26.07;66.55;100646.00;5032048;28;20189;-70
2023/09/06 08:18:03;;;;;;;4.40;3.47;;;;;;;27.05;64.03;100637.56;5032077;28;20217;-71
2023/09/06 08:20:29;;;;;;;6.88;3.90;;;;;;;27.74;55.84;100641.84;5021458;28;20693;-71
2023/09/06 08:22:54;;;;;;;3.63;3.30;;;;;;;27.25;60.69;100639.69;5023299;28;20218;-71
2023/09/06 08:25:20;;;;;;;4.20;3.33;;;;;;;27.57;57.77;100645.69;5012218;28;20183;-71
2023/09/06 08:27:45;;;;;;;5.82;3.65;;;;;;;28.50;52.72;100646.81;5010813;28;20528;-71
2023/09/06 08:30:13;;;;;;;5.22;3.38;;;;;;;27.22;56.84;100636.41;5003946;28;20225;-71
2023/09/06 08:32:42;;;;;;;4.25;3.38;;;;;;;27.26;59.18;100638.72;5038048;28;20183;-71
2023/09/06 08:35:11;;;;;;;8.52;3.33;;;;;;;27.50;58.63;100635.00;5030393;28;20189;-71
2023/09/06 08:37:36;;;;;;;6.22;3.10;;;;;;;29.44;49.20;100636.94;5032497;28;20677;-70
2023/09/06 08:40:05;;;;;;;10.15;3.00;;;;;;;29.62;48.27;100636.44;5030827;28;20264;-70
2023/09/06 08:42:33;;;;;;;3.50;3.15;;;;;;;29.30;47.28;100638.72;5024609;28;20222;-71
2023/09/06 08:44:59;;;;;;;5.47;3.05;;;;;;;28.58;47.11;100642.38;5035840;28;20243;-70
2023/09/06 08:47:24;;;;;;;7.65;3.30;;;;;;;27.46;54.43;100637.22;5035737;28;20174;-69
2023/09/06 08:49:53;;;;;;;3.50;3.13;;;;;;;27.18;56.96;100629.84;5035463;28;20654;-69
2023/09/06 08:52:19;;;;;;;6.22;3.03;;;;;;;28.87;48.88;100627.38;5040872;28;20225;-71
2023/09/06 08:54:46;;;;;;;4.20;3.45;;;;;;;27.35;56.04;100635.81;5035642;28;20655;-70
2023/09/06 08:57:13;;;;;;;3.95;3.40;;;;;;;28.60;49.28;100635.06;5035676;28;20634;-71
2023/09/06 08:59:39;;;;;;;7.10;3.33;;;;;;;28.91;48.26;100639.22;5035348;28;20182;-70
2023/09/06 09:02:04;;;;;;;3.60;3.00;;;;;;;28.24;52.16;100636.75;5040271;28;20229;-71
2023/09/06 09:04:31;;;;;;;5.88;3.35;;;;;;;28.85;48.19;100640.78;5035265;28;20223;-71
2023/09/06 09:06:57;;;;;;;3.97;3.35;;;;;;;28.40;49.88;100640.97;5034289;28;20672;-70
2023/09/06 09:09:23;;;;;;;6.07;3.85;;;;;;;28.26;51.13;100637.38;5035362;28;20189;-69
2023/09/06 09:11:50;;;;;;;7.43;3.05;;;;;;;28.60;50.23;100629.78;5023895;28;20221;-71
2023/09/06 09:14:23;;;;;;;6.47;3.13;;;;;;;28.97;50.50;100638.47;5016855;28;20305;-71
2023/09/06 09:16:53;;;;;;;8.07;3.05;;;;;;;28.46;51.07;100639.41;5015364;28;20191;-69
2023/09/06 09:19:20;;;;;;;5.72;3.67;;;;;;;29.65;48.18;100629.94;5003294;28;20187;-70
2023/09/06 09:21:46;;;;;;;3.67;3.13;;;;;;;30.00;45.79;100629.06;5031621;28;20245;-68
2023/09/06 09:24:12;;;;;;;6.15;3.25;;;;;;;30.57;43.37;100632.28;5037266;28;20715;-72
2023/09/06 09:26:41;;;;;;;6.80;3.40;;;;;;;30.69;42.47;100638.59;5034824;28;20281;-71
2023/09/06 09:29:11;;;;;;;4.90;3.25;;;;;;;29.20;46.24;100624.97;5033796;28;20547;-69
2023/09/06 09:31:37;;;;;;;5.00;3.10;;;;;;;29.61;46.19;100621.56;5023322;28;20238;-67
2023/09/06 09:34:02;;;;;;;8.93;3.00;;;;;;;30.41;44.07;100628.13;5018605;28;20182;-70
2023/09/06 09:36:34;;;;;;;5.93;2.72;;;;;;;29.30;44.97;100624.66;5015544;28;20182;-70
2023/09/06 09:39:05;;;;;;;5.80;3.40;;;;;;;29.41;44.71;100621.47;5014428;28;20198;-71
2023/09/06 09:41:31;;;;;;;3.67;3.00;;;;;;;30.51;41.27;100625.94;5015045;28;20253;-71
2023/09/06 09:44:13;;;;;;;4.38;3.33;;;;;;;30.60;40.53;100623.88;5018250;28;20190;-70
2023/09/06 09:46:40;;;;;;;5.65;3.10;;;;;;;30.95;40.79;100622.84;5014244;28;20236;-71
2023/09/06 09:49:08;;;;;;;3.15;2.85;;;;;;;29.55;42.03;100625.00;5015149;28;20218;-70
2023/09/06 09:51:34;;;;;;;3.35;3.05;;;;;;;29.43;41.52;100621.25;5028654;28;20216;-71
2023/09/06 09:54:00;;;;;;;4.70;3.33;;;;;;;31.11;39.21;100616.31;5038004;28;20641;-70
2023/09/06 09:56:28;;;;;;;3.65;3.35;;;;;;;31.18;38.28;100612.63;5034205;28;20186;-70
2023/09/06 09:58:54;;;;;;;3.55;3.25;;;;;;;30.33;38.85;100618.53;5034448;28;20741;-70
2023/09/06 10:01:20;;;;;;;5.35;3.28;;;;;;;29.75;40.37;100619.78;5034161;28;20312;-71
2023/09/06 10:03:49;;;;;;;6.57;3.30;;;;;;;29.03;41.82;100608.56;5039815;28;20186;-70
2023/09/06 10:06:15;;;;;;;3.67;2.90;;;;;;;28.60;42.71;100601.47;5034289;28;20237;-71
2023/09/06 10:08:43;;;;;;;6.63;3.20;;;;;;;28.67;44.49;100599.72;5033043;28;20189;-70
2023/09/06 10:11:09;;;;;;;7.07;3.13;;;;;;;31.37;37.95;100605.66;5019898;28;20229;-71
2023/09/06 10:13:37;;;;;;;3.92;3.42;;;;;;;29.61;40.64;100610.16;5040372;28;20189;-71
2023/09/06 10:16:03;;;;;;;6.78;3.20;;;;;;;30.97;39.71;100604.88;5034347;28;20177;-70
2023/09/06 10:18:29;;;;;;;3.15;2.92;;;;;;;30.04;41.32;100614.38;5033934;28;20263;-71
2023/09/06 10:20:55;;;;;;;6.18;3.15;;;;;;;30.56;39.44;100607.56;5023658;28;20285;-70
2023/09/06 10:23:21;;;;;;;4.60;3.30;;;;;;;30.47;39.62;100608.75;5021795;28;20235;-71
2023/09/06 10:25:53;;;;;;;7.13;3.00;;;;;;;29.93;39.92;100598.06;5014338;28;20526;-71
2023/09/06 10:28:22;;;;;;;3.88;2.90;;;;;;;30.69;38.90;100601.44;5013956;28;20187;-70
2023/09/06 10:30:54;;;;;;;7.57;3.13;;;;;;;30.44;38.28;100598.56;5016063;28;20359;-70
2023/09/06 10:33:28;;;;;;;3.58;3.28;;;;;;;28.88;41.79;100587.47;5041298;28;20894;-70
2023/09/06 10:35:57;;;;;;;4.65;3.42;;;;;;;27.82;45.83;100594.16;5033559;28;20177;-71
2023/09/06 10:38:23;;;;;;;4.28;3.08;;;;;;;26.95;53.06;100587.66;5032988;28;20206;-72
2023/09/06 10:40:50;;;;;;;7.68;3.53;;;;;;;26.22;59.80;100585.44;5023378;28;20658;-70
2023/09/06 10:43:17;;;;;;;4.93;3.38;;;;;;;25.78;62.21;100591.25;5011879;28;20190;-70
2023/09/06 10:45:56;;;;;;;5.68;3.42;;;;;;;25.90;62.18;100583.75;5013779;28;20201;-71
2023/09/06 10:48:23;;;;;;;3.50;3.20;;;;;;;25.88;62.81;100591.03;5013543;28;20248;-71
2023/09/06 10:51:06;;;;;;;5.43;3.40;;;;;;;25.60;65.49;100579.13;5009516;28;20237;-71
2023/09/06 10:53:33;;;;;;;3.50;3.20;;;;;;;25.51;68.08;100572.25;5009544;28;20192;-72
2023/09/06 10:56:00;;;;;;;3.80;3.50;;;;;;;25.30;67.50;100576.25;5013362;28;20190;-71
2023/09/06 10:58:27;;;;;;;5.20;3.40;;;;;;;25.40;69.63;100572.63;5013619;28;20198;-72
2023/09/06 11:01:12;;;;;;;6.00;3.20;;;;;;;25.56;67.66;100583.09;5016169;28;20229;-72
2023/09/06 11:03:38;;;;;;;6.00;3.85;;;;;;;25.49;66.81;100581.31;5039418;28;20185;-70
2023/09/06 11:06:04;;;;;;;6.05;3.63;;;;;;;25.42;67.77;100574.09;5033212;28;20190;-72
2023/09/06 11:08:31;;;;;;;4.60;3.72;;;;;;;25.53;68.59;100574.72;5033284;28;20745;-72
2023/09/06 11:11:05;;;;;;;3.58;3.28;;;;;;;25.45;64.14;100571.13;5022468;28;20221;-71
2023/09/06 11:13:33;;;;;;;4.28;3.38;;;;;;;25.45;61.09;100563.22;5019913;28;20194;-71
2023/09/06 11:15:59;;;;;;;6.75;3.33;;;;;;;25.54;62.05;100564.00;5013279;28;20210;-72
2023/09/06 11:18:26;;;;;;;4.10;3.20;;;;;;;25.58;60.62;100567.94;5012983;28;20563;-71